Metar Cercanos

 

LEPA - Palma De Mallorc, Spain
Distance from station: ONO 38km
Actualización: Thu, 06-Oct-2022 3:30pm CEST
Parcialmente nuboso
Parcialmente nuboso
 Viento del NE
Viento: NE 13 km/h
Temperatura: 23°C
Rocío: 20°C
Humedad: 83%
Barómetro: 1024 hPa
Clouds: Parcialmente nuboso
Visibility: 9 km
Cloud details: Few Clouds 183 m
Few Clouds 610 m
Parcialmente nuboso 1402 m
2022/10/06 13:30 LEPA 061330Z 05007KT 020V080 9000 FEW006 FEW020CB SCT046 23/20 Q1024 TEMPO 1000 TSRA
LEMH - Mahon/Menorca Is, Spain
Distance from station: ENE 105km
Actualización: Thu, 06-Oct-2022 3:30pm CEST
Few Clouds
Few Clouds
 Viento del E
Viento: E 20 km/h
Temperatura: 24°C
Rocío: 17°C
Humedad: 65%
Barómetro: 1025 hPa
Clouds: Few Clouds
Visibility: 10 km
Cloud details: Few Clouds 762 m
2022/10/06 13:30 LEMH 061330Z 09011KT 040V120 9999 FEW025 24/17 Q1025
 
LEIB - Ibiza/Es Codola, Spain
Distance from station: OSO 165km
Actualización: Thu, 06-Oct-2022 3:30pm CEST
Few Clouds
Few Clouds
 Viento del ENE
Viento: ENE 15 km/h
Temperatura: 24°C
Rocío: 18°C
Humedad: 69%
Barómetro: 1024 hPa
Clouds: Few Clouds
Visibility: 10 km
Cloud details: Parcialmente nuboso 610 m
Few Clouds 762 m
2022/10/06 13:30 LEIB 061330Z 07008KT 050V110 9999 SCT020 FEW025TCU 24/18 Q1024 NOSIG
LEBL - Barcelona Airpor, Spain
Distance from station: NNO 225km
Actualización: Thu, 06-Oct-2022 3:30pm CEST
Few Clouds
Few Clouds
 Viento del E
Viento: E 24 km/h
Temperatura: 24°C
Rocío: 16°C
Humedad: 61%
Barómetro: 1026 hPa
Clouds: Few Clouds
Visibility: 10 km
Cloud details: Few Clouds 610 m
2022/10/06 13:30 LEBL 061330Z 09013KT 040V110 9999 FEW020 24/16 Q1026 NOSIG
 
LEVC - Valencia (civ/Mi, Spain
Distance from station: NO 188km
Actualización: Thu, 06-Oct-2022 3:30pm CEST
Parcialmente nuboso
Parcialmente nuboso
 Viento del ENE
Viento: ENE 31 km/h
Temperatura: 24°C
Rocío: 16°C
Humedad: 61%
Barómetro: 1025 hPa
Clouds: Parcialmente nuboso
Visibility: 10 km
Cloud details: Few Clouds 610 m
Parcialmente nuboso 1219 m
2022/10/06 13:30 LEVC 061330Z 07017KT 040V100 9999 FEW020 SCT040 24/16 Q1025 NOSIG
LEGE - Gerona/Costa Bra, Spain
Distance from station: N 276km
Actualización: Thu, 06-Oct-2022 3:30pm CEST
Parcialmente nuboso
Parcialmente nuboso
 Viento del E
Viento: E 15 km/h
Temperatura: 24°C
Rocío: 15°C
Humedad: 57%
Barómetro: 1026 hPa
Clouds: Parcialmente nuboso
Visibility: 10 km
Cloud details: Parcialmente nuboso 1219 m
2022/10/06 13:30 LEGE 061330Z 08008KT 050V140 9999 SCT040 24/15 Q1026
 
LEAL - Alicante/El Alte, Spain
Distance from station: OSO 344km
Actualización: Thu, 06-Oct-2022 3:30pm CEST
Few Clouds
Few Clouds
 Viento del E
Viento: E 24 km/h
Temperatura: 24°C
Rocío: 18°C
Humedad: 69%
Barómetro: 1024 hPa
Clouds: Few Clouds
Visibility: 10 km
Cloud details: Few Clouds 762 m
2022/10/06 13:30 LEAL 061330Z 09013KT 9999 FEW025TCU 24/18 Q1024 NOSIG
LEAM - Almeria Airport, Spain
Distance from station: SSO 56km
Actualización: Thu, 06-Oct-2022 3:30pm CEST
Despejado
Despejado
 Viento del E
Viento: E 33 km/h
Temperatura: 26°C
Rocío: 18°C
Humedad: 61%
Barómetro: 1021 hPa
Resumen: Despejado
Visibility: greater than 10 km
2022/10/06 13:30 LEAM 061330Z 09018KT 050V120 CAVOK 26/18 Q1021
 
LEZG - Zaragoza (mil/Ci, Spain
Distance from station: NO 431km
Actualización: Thu, 06-Oct-2022 3:30pm CEST
Despejado
Despejado
 Viento del NNO
Viento: NNO 6 km/h
Temperatura: 24°C
Rocío: 13°C
Humedad: 50%
Barómetro: 1026 hPa
Resumen: Despejado
Visibility: greater than 10 km
2022/10/06 13:30 LEZG 061330Z 34003KT CAVOK 24/13 Q1026
LEMD - Madrid/Barajas, Spain
Distance from station: ONO 234km
Actualización: Thu, 06-Oct-2022 3:30pm CEST
Few Clouds
Few Clouds
 Viento del SSE
Viento: SSE 2 km/h
Temperatura: 26°C
Rocío: 11°C
Humedad: 39%
Barómetro: 1025 hPa
Clouds: Few Clouds
Visibility: 10 km
Cloud details: Few Clouds 1829 m
2022/10/06 13:30 LEMD 061330Z 16001KT 9999 FEW060 26/11 Q1025 NOSIG
 
LEGR - Granada Airport, Spain
Distance from station: OSO 62km
Actualización: Thu, 06-Oct-2022 3:30pm CEST
Parcialmente nuboso
Parcialmente nuboso
 Viento del varies
Viento: varies 2 km/h
Temperatura: 27°C
Rocío: 10°C
Humedad: 34%
Barómetro: 1023 hPa
Clouds: Parcialmente nuboso
Visibility: 10 km
Cloud details: Parcialmente nuboso 1829 m
2022/10/06 13:30 LEGR 061330Z VRB01KT 9999 SCT060 27/10 Q1023
LEMG - Malaga (civ/Mil), Spain
Distance from station: OSO 227km
Actualización: Thu, 06-Oct-2022 3:30pm CEST
Few Clouds
Few Clouds
 Viento del SE
Viento: SE 17 km/h
Temperatura: 25°C
Rocío: 17°C
Humedad: 61%
Barómetro: 1022 hPa
Clouds: Few Clouds
Visibility: 10 km
Cloud details: Few Clouds 853 m
2022/10/06 13:30 LEMG 061330Z 13009KT 090V160 9999 FEW028 25/17 Q1022 NOSIG
 
LEZL - Sevilla (civ/Mil, Spain
Distance from station: S 318km
Actualización: Thu, 06-Oct-2022 3:30pm CEST
Despejado
Despejado
 Viento del E
Viento: E 19 km/h
Temperatura: 31°C
Rocío: 13°C
Humedad: 33%
Barómetro: 1019 hPa
Resumen: Despejado
Visibility: greater than 10 km
2022/10/06 13:30 LEZL 061330Z 08010KT 030V120 CAVOK 31/13 Q1019 NOSIG
LEVT - Vitoria, Spain
Distance from station: NO 226km
Actualización: Thu, 06-Oct-2022 3:30pm CEST
Few Clouds
Few Clouds
 Viento del NNE
Viento: NNE 17 km/h
Temperatura: 21°C
Rocío: 12°C
Humedad: 57%
Barómetro: 1027 hPa
Clouds: Few Clouds
Visibility: 10 km
Cloud details: Few Clouds 975 m
2022/10/06 13:30 LEVT 061330Z 02009KT 340V060 9999 FEW032 21/12 Q1027
 
LEBB - Bilbao/Sondica, Spain
Distance from station: NNO 235km
Actualización: Thu, 06-Oct-2022 3:30pm CEST
Muy nuboso
Muy nuboso
 Viento del N
Viento: N 9 km/h
Temperatura: 22°C
Rocío: 17°C
Humedad: 73%
Barómetro: 1028 hPa
Clouds: Muy nuboso
Visibility: 10 km
Cloud details: Parcialmente nuboso 701 m
Muy nuboso 1341 m
2022/10/06 13:30 LEBB 061330Z 36005KT 310V040 9999 SCT023 BKN044 22/17 Q1028 NOSIG
LESO - San Sebastian/Fu, Spain
Distance from station: N 231km
Actualización: Thu, 06-Oct-2022 3:30pm CEST
Muy nuboso
Muy nuboso
 Viento del N
Viento: N 11 km/h
Temperatura: 20°C
Rocío: 17°C
Humedad: 83%
Barómetro: 1028 hPa
Clouds: Muy nuboso
Visibility: 10 km
Cloud details: Muy nuboso 1067 m
2022/10/06 13:30 LESO 061330Z 36006KT 320V040 9999 BKN035 20/17 Q1028
 
LEVD - Valladolid(Mil/C, Spain
Distance from station: ONO 239km
Actualización: Thu, 06-Oct-2022 3:30pm CEST
Despejado
Despejado
 Viento del varies
Viento: varies 6 km/h
Temperatura: 24°C
Rocío: 8°C
Humedad: 36%
Barómetro: 1026 hPa
Resumen: Despejado
Visibility: greater than 10 km
2022/10/06 13:30 LEVD 061330Z VRB03KT CAVOK 24/08 Q1026
LESA - Salamanca (civ/M, Spain
Distance from station: ONO 349km
Actualización: Thu, 06-Oct-2022 3:30pm CEST
Despejado
Despejado
 Viento del varies
Viento: varies 6 km/h
Temperatura: 25°C
Rocío: 7°C
Humedad: 32%
Barómetro: 1025 hPa
Resumen: Despejado
Visibility: greater than 10 km
2022/10/06 13:30 LESA 061330Z VRB03KT CAVOK 25/07 Q1025
 
LEXJ - Santander/Paraya, Spain
Distance from station: NNO 247km
Actualización: Thu, 06-Oct-2022 3:30pm CEST
Muy nuboso
Muy nuboso
 Viento del ENE
Viento: ENE 11 km/h
Temperatura: 20°C
Rocío: 17°C
Humedad: 83%
Barómetro: 1027 hPa
Clouds: Muy nuboso
Visibility: 10 km
Cloud details: Parcialmente nuboso 427 m
Muy nuboso 1372 m
2022/10/06 13:30 LEXJ 061330Z 06006KT 350V110 9999 SCT014 BKN045 20/17 Q1027
LEAS - Asturias/Aviles, Spain
Distance from station: NO 214km
Actualización: Thu, 06-Oct-2022 3:30pm CEST
Muy nuboso
Muy nuboso
 Viento del E
Viento: E 22 km/h
Temperatura: 17°C
Rocío: 17°C
Humedad: 100%
Barómetro: 1027 hPa
Clouds: Muy nuboso
Visibility: 9 km
Cloud details: Parcialmente nuboso 183 m
Muy nuboso 366 m
2022/10/06 13:30 LEAS 061330Z 08012KT 040V110 9000 SCT006 BKN012 17/17 Q1027 TEMPO 3000 RA BR
 
LECO - La Coruna/Alvedr, Spain
Distance from station: ONO 222km
Actualización: Thu, 06-Oct-2022 3:30pm CEST
Few Clouds
Few Clouds
 Viento del NE
Viento: NE 15 km/h
Temperatura: 24°C
Rocío: 16°C
Humedad: 61%
Barómetro: 1024 hPa
Clouds: Few Clouds
Visibility: 10 km
Cloud details: Few Clouds 1067 m
2022/10/06 13:30 LECO 061330Z 05008KT 350V080 9999 FEW035 24/16 Q1024 NOSIG
LEVX - Vigo/Peinador, Spain
Distance from station: O 214km
Actualización: Thu, 06-Oct-2022 3:30pm CEST
Despejado
Despejado
 Viento del NE
Viento: NE 6 km/h
Temperatura: 26°C
Rocío: 17°C
Humedad: 58%
Barómetro: 1023 hPa
Resumen: Despejado
Visibility: greater than 10 km
2022/10/06 13:30 LEVX 061330Z 05003KT 330V100 CAVOK 26/17 Q1023 NOSIG